Time;durP1;ratioP1;P1;durP2;ratioP2;P2;SDS_P1;SDS_P2;PMS_P1;PMS_P2;Temp;Humidity;BMP_temperature;BMP_pressure;BME280_temperature;BME280_humidity;BME280_pressure;Samples;Min_cycle;Max_cycle;Signal;HPM_P1;HPM_P2
2023/04/03 00:00:58;;;;;;;11.20;10.50;;;;;;;1.42;77.88;99171.38;5009466;28;20095;-77
2023/04/03 00:03:24;;;;;;;9.43;8.82;;;;;;;1.57;75.40;99178.72;5035940;28;20163;-76
2023/04/03 00:05:49;;;;;;;5.00;4.60;;;;;;;1.62;72.67;99171.09;5042719;28;20179;-78
2023/04/03 00:08:15;;;;;;;5.30;4.25;;;;;;;1.68;72.47;99170.47;5015281;28;20494;-78
2023/04/03 00:10:40;;;;;;;5.15;4.80;;;;;;;1.56;73.98;99187.69;5002481;28;20034;-77
2023/04/03 00:13:06;;;;;;;5.00;4.60;;;;;;;1.78;73.56;99177.25;4997148;28;20034;-77
2023/04/03 00:15:31;;;;;;;3.95;3.63;;;;;;;1.75;72.63;99176.78;4996515;28;20075;-78
2023/04/03 00:17:57;;;;;;;4.32;3.97;;;;;;;2.06;72.54;99169.81;5024187;28;20061;-78
2023/04/03 00:20:22;;;;;;;4.63;4.22;;;;;;;1.90;74.00;99173.28;5025860;28;20041;-78
2023/04/03 00:22:48;;;;;;;5.05;4.65;;;;;;;1.90;72.69;99172.47;5017663;28;20030;-77
2023/04/03 00:25:13;;;;;;;5.00;4.60;;;;;;;1.99;72.84;99168.81;5017530;28;20430;-78
2023/04/03 00:27:39;;;;;;;5.70;5.28;;;;;;;1.82;73.95;99177.78;5030868;28;20022;-78
2023/04/03 00:30:06;;;;;;;5.50;5.03;;;;;;;1.64;74.72;99171.75;5011837;28;20044;-77
2023/04/03 00:32:32;;;;;;;6.28;5.68;;;;;;;1.58;74.83;99167.13;5012250;28;20021;-77
2023/04/03 00:34:57;;;;;;;8.02;7.53;;;;;;;1.63;77.33;99172.78;4992618;28;20479;-77
2023/04/03 00:37:23;;;;;;;7.78;7.18;;;;;;;1.96;75.14;99174.47;5005629;28;20419;-76
2023/04/03 00:39:48;;;;;;;7.25;6.65;;;;;;;1.96;73.98;99169.16;5022267;28;20080;-76
2023/04/03 00:42:14;;;;;;;5.78;5.03;;;;;;;1.90;73.75;99180.41;5026401;28;20033;-75
2023/04/03 00:44:39;;;;;;;6.63;5.90;;;;;;;2.07;74.21;99171.47;4980548;28;20502;-75
2023/04/03 00:47:07;;;;;;;6.88;6.28;;;;;;;1.90;74.54;99175.13;5010176;28;20049;-76
2023/04/03 00:49:33;;;;;;;5.88;5.47;;;;;;;1.76;75.19;99173.09;5007396;28;20061;-76
2023/04/03 00:51:59;;;;;;;6.40;5.97;;;;;;;1.75;75.12;99172.28;5019613;28;20483;-75
2023/04/03 00:54:25;;;;;;;8.45;7.95;;;;;;;1.93;74.93;99172.97;5021778;28;20527;-75
2023/04/03 00:56:52;;;;;;;8.60;7.88;;;;;;;2.16;75.72;99174.94;5013959;28;20017;-76
2023/04/03 00:59:22;;;;;;;8.35;7.75;;;;;;;2.06;76.31;99169.81;5022016;28;20029;-76
2023/04/03 01:01:49;;;;;;;8.95;8.35;;;;;;;2.14;75.19;99164.50;5019108;28;20128;-75
2023/04/03 01:04:44;;;;;;;8.70;8.02;;;;;;;2.09;75.13;99174.78;4984841;28;20085;-75
2023/04/03 01:07:19;;;;;;;8.38;7.70;;;;;;;2.19;74.65;99166.66;4981909;28;20071;-75
2023/04/03 01:09:47;;;;;;;8.32;7.75;;;;;;;2.22;75.59;99169.78;5002975;28;20030;-76
2023/04/03 01:12:17;;;;;;;10.18;9.38;;;;;;;2.22;75.55;99167.13;4986207;28;20473;-74
2023/04/03 01:14:44;;;;;;;10.45;9.57;;;;;;;2.21;76.43;99173.47;5025711;28;20077;-75
2023/04/03 01:17:30;;;;;;;10.00;9.35;;;;;;;2.17;75.26;99168.66;5023629;28;20029;-75
2023/04/03 01:20:01;;;;;;;;;;;;;;;2.17;74.54;99176.63;4990986;28;20053;-76
2023/04/03 01:22:31;;;;;;;8.13;7.38;;;;;;;2.15;75.48;99179.41;5019003;28;19921;-77
2023/04/03 01:24:57;;;;;;;8.55;7.85;;;;;;;2.05;75.92;99173.47;4988332;28;20415;-77
2023/04/03 01:27:22;;;;;;;8.80;8.20;;;;;;;2.09;75.60;99175.63;4989894;28;20033;-77
2023/04/03 01:29:48;;;;;;;7.53;6.95;;;;;;;2.18;74.88;99176.44;4998016;28;20038;-76
2023/04/03 01:32:13;;;;;;;8.27;7.63;;;;;;;2.23;75.93;99171.47;5002529;28;20484;-78
2023/04/03 01:34:40;;;;;;;8.43;7.93;;;;;;;2.28;75.29;99168.28;5026211;28;20030;-77
2023/04/03 01:37:06;;;;;;;8.88;8.25;;;;;;;2.31;74.89;99168.78;5011219;28;20530;-79
2023/04/03 01:39:31;;;;;;;9.85;9.25;;;;;;;2.22;77.09;99175.09;4989851;28;20033;-78
2023/04/03 01:41:58;;;;;;;10.43;9.52;;;;;;;2.25;75.74;99169.47;4996340;28;20018;-78
2023/04/03 01:44:29;;;;;;;9.43;8.82;;;;;;;2.24;75.79;99178.41;5000109;28;20053;-79
2023/04/03 01:46:55;;;;;;;8.68;7.93;;;;;;;2.19;75.33;99175.47;5031615;28;20046;-78
2023/04/03 01:49:22;;;;;;;10.40;9.48;;;;;;;2.33;76.68;99177.44;5003976;28;20030;-75
2023/04/03 01:51:48;;;;;;;11.63;10.85;;;;;;;2.22;78.46;99172.44;5018724;28;20040;-76
2023/04/03 01:54:14;;;;;;;10.35;9.55;;;;;;;2.17;76.06;99182.75;5008544;28;20064;-76
2023/04/03 01:56:39;;;;;;;11.48;10.75;;;;;;;2.08;77.11;99184.56;5014762;28;20029;-76
2023/04/03 01:59:05;;;;;;;14.10;13.10;;;;;;;2.29;76.82;99178.75;5004815;28;20499;-75
2023/04/03 02:01:30;;;;;;;11.10;10.35;;;;;;;2.22;76.24;99175.09;4997098;28;20030;-75
2023/04/03 02:03:56;;;;;;;10.73;10.00;;;;;;;2.13;77.49;99181.41;4986392;28;20034;-75
2023/04/03 02:06:21;;;;;;;11.13;10.15;;;;;;;2.16;76.57;99181.09;5021244;28;20045;-75
2023/04/03 02:08:47;;;;;;;12.02;11.23;;;;;;;2.31;77.03;99182.06;5006235;28;20463;-75
2023/04/03 02:11:14;;;;;;;9.95;9.25;;;;;;;2.36;76.95;99182.41;4992406;28;20128;-76
2023/04/03 02:13:39;;;;;;;13.15;12.27;;;;;;;2.18;76.49;99179.09;5020066;28;20452;-77
2023/04/03 02:16:09;;;;;;;11.82;11.13;;;;;;;2.42;76.38;99179.06;5000067;28;20480;-76
2023/04/03 02:18:35;;;;;;;11.85;11.05;;;;;;;2.47;76.79;99168.78;5023032;28;20492;-77
2023/04/03 02:21:01;;;;;;;11.70;10.85;;;;;;;2.33;76.92;99177.44;5008105;28;20030;-77
2023/04/03 02:23:26;;;;;;;13.02;12.20;;;;;;;2.30;77.11;99172.44;5004092;28;20042;-76
2023/04/03 02:25:51;;;;;;;14.20;13.20;;;;;;;2.32;77.39;99173.09;5001323;28;20061;-77
2023/04/03 02:28:17;;;;;;;11.95;11.05;;;;;;;2.41;76.85;99169.44;5032208;28;20033;-76
2023/04/03 02:30:42;;;;;;;11.82;10.88;;;;;;;2.22;76.93;99164.47;5016534;28;20142;-77
2023/04/03 02:33:07;;;;;;;12.65;11.65;;;;;;;2.25;77.97;99181.91;5020157;28;20473;-76
2023/04/03 02:35:33;;;;;;;12.82;11.93;;;;;;;2.12;77.41;99169.16;4984546;28;20026;-76
2023/04/03 02:37:59;;;;;;;11.57;10.63;;;;;;;2.31;76.93;99168.78;4985942;28;20117;-76
2023/04/03 02:40:25;;;;;;;10.40;9.52;;;;;;;2.35;76.47;99169.28;5008033;28;20159;-76
2023/04/03 02:42:50;;;;;;;13.93;12.88;;;;;;;2.29;77.13;99176.09;5019705;28;20041;-77
2023/04/03 02:45:17;;;;;;;13.48;12.50;;;;;;;2.39;77.50;99171.44;4983915;28;20058;-77
2023/04/03 02:47:42;;;;;;;16.60;15.50;;;;;;;2.17;77.66;99182.75;4986415;28;20080;-76
2023/04/03 02:50:09;;;;;;;14.88;13.98;;;;;;;2.43;77.73;99185.19;5004922;28;20022;-76
2023/04/03 02:52:34;;;;;;;13.63;12.73;;;;;;;2.42;77.28;99176.41;5022381;28;20090;-76
2023/04/03 02:55:00;;;;;;;13.60;12.73;;;;;;;2.34;77.26;99184.41;5008978;28;20475;-76
2023/04/03 02:57:26;;;;;;;15.68;14.43;;;;;;;2.36;77.38;99181.56;4989918;28;20060;-76
2023/04/03 02:59:51;;;;;;;15.20;14.10;;;;;;;2.33;78.17;99176.59;5009063;28;20025;-75
2023/04/03 03:02:17;;;;;;;14.18;13.18;;;;;;;2.30;76.83;99188.41;5021469;28;20037;-75
2023/04/03 03:04:42;;;;;;;14.05;12.95;;;;;;;2.28;77.38;99184.25;5026143;28;20029;-75
2023/04/03 03:07:08;;;;;;;13.38;12.27;;;;;;;2.19;77.36;99186.09;4988671;28;20500;-75
2023/04/03 03:09:33;;;;;;;13.60;12.50;;;;;;;2.25;77.17;99184.56;5009579;28;20022;-75
2023/04/03 03:11:59;;;;;;;13.25;12.25;;;;;;;2.30;76.58;99188.41;5005205;28;20583;-75
2023/04/03 03:14:24;;;;;;;12.15;11.10;;;;;;;2.24;77.26;99189.03;5007402;28;20033;-77
2023/04/03 03:16:50;;;;;;;14.15;13.15;;;;;;;2.14;77.93;99187.56;5002688;28;20507;-76
2023/04/03 03:19:15;;;;;;;12.95;11.95;;;;;;;2.24;77.30;99198.88;5000506;28;20075;-76
2023/04/03 03:21:41;;;;;;;13.05;12.15;;;;;;;2.09;77.44;99193.38;5006112;28;20045;-77
2023/04/03 03:24:06;;;;;;;14.10;13.10;;;;;;;2.07;77.84;99195.38;5007127;28;20034;-76
2023/04/03 03:26:32;;;;;;;14.32;13.18;;;;;;;2.13;78.21;99192.03;5001955;28;20029;-77
2023/04/03 03:28:57;;;;;;;13.88;12.88;;;;;;;2.06;78.35;99191.06;5019539;28;20026;-77
2023/04/03 03:31:23;;;;;;;15.38;14.27;;;;;;;2.19;77.50;99202.03;4990770;28;20042;-76
2023/04/03 03:33:48;;;;;;;15.48;14.38;;;;;;;2.08;77.93;99194.38;5011105;28;20025;-77
2023/04/03 03:36:14;;;;;;;14.85;13.65;;;;;;;2.12;78.14;99198.38;5005571;28;20029;-75
2023/04/03 03:38:39;;;;;;;14.32;13.38;;;;;;;2.24;77.30;99194.34;4988311;28;20022;-75
2023/04/03 03:41:05;;;;;;;15.00;13.88;;;;;;;2.08;77.93;99189.06;5001189;28;20079;-76
2023/04/03 03:43:32;;;;;;;14.98;13.90;;;;;;;2.01;78.23;99193.38;5004348;28;20125;-75
2023/04/03 03:45:58;;;;;;;13.98;12.98;;;;;;;2.04;77.97;99198.34;5026992;28;20479;-76
2023/04/03 03:48:24;;;;;;;16.25;14.80;;;;;;;1.97;78.16;99192.03;5011417;28;20029;-75
2023/04/03 03:50:50;;;;;;;17.25;16.08;;;;;;;2.04;78.33;99198.34;4988847;28;20025;-74
2023/04/03 03:53:17;;;;;;;15.18;14.18;;;;;;;2.04;78.29;99203.66;5016507;28;20060;-76
2023/04/03 03:55:43;;;;;;;14.35;13.55;;;;;;;2.00;77.69;99202.34;4997828;28;20061;-76
2023/04/03 03:58:08;;;;;;;12.50;11.63;;;;;;;1.99;77.17;99201.50;4998721;28;20026;-76
2023/04/03 04:00:35;;;;;;;12.32;10.88;;;;;;;1.89;76.77;99205.34;5017249;28;20487;-76
2023/04/03 04:03:00;;;;;;;11.07;10.02;;;;;;;1.83;77.36;99201.50;4999244;28;20037;-76
2023/04/03 04:05:28;;;;;;;10.45;9.50;;;;;;;1.85;76.26;99199.50;5006326;28;20030;-76
2023/04/03 04:07:54;;;;;;;11.52;10.50;;;;;;;1.86;76.29;99208.31;5004064;28;20053;-76
2023/04/03 04:10:20;;;;;;;10.90;9.82;;;;;;;1.79;76.70;99208.16;5005534;28;20026;-76
2023/04/03 04:12:46;;;;;;;10.52;9.63;;;;;;;1.79;76.56;99199.34;5022359;28;20030;-76
2023/04/03 04:15:12;;;;;;;11.70;10.60;;;;;;;1.77;77.29;99202.16;5005973;28;20555;-77
2023/04/03 04:17:38;;;;;;;12.10;11.10;;;;;;;1.73;76.69;99208.78;4986038;28;20121;-76
2023/04/03 04:20:07;;;;;;;13.02;11.90;;;;;;;1.81;77.21;99207.97;5008639;28;20092;-76
2023/04/03 04:22:32;;;;;;;13.73;12.63;;;;;;;1.72;77.57;99204.47;5011001;28;20037;-75
2023/04/03 04:24:58;;;;;;;11.65;10.65;;;;;;;1.78;77.23;99202.97;5007919;28;20025;-76
2023/04/03 04:27:24;;;;;;;12.80;11.75;;;;;;;1.59;77.67;99203.31;4987527;28;20022;-76
2023/04/03 04:29:50;;;;;;;11.90;10.95;;;;;;;1.51;77.23;99205.94;5025876;28;20116;-76
2023/04/03 04:32:16;;;;;;;10.45;9.43;;;;;;;1.50;76.71;99214.88;5012581;28;20041;-76
2023/04/03 04:34:41;;;;;;;11.80;10.82;;;;;;;1.40;77.71;99209.72;5024408;28;20168;-75
2023/04/03 04:37:07;;;;;;;12.52;11.52;;;;;;;1.31;77.25;99200.88;5010310;28;20479;-75
2023/04/03 04:39:33;;;;;;;12.73;11.55;;;;;;;1.30;77.75;99209.03;5012660;28;20048;-75
2023/04/03 04:41:58;;;;;;;12.32;11.38;;;;;;;1.34;77.62;99208.53;5010169;28;20018;-75
2023/04/03 04:44:26;;;;;;;13.10;12.10;;;;;;;1.37;77.29;99216.19;5005444;28;20044;-74
2023/04/03 04:46:52;;;;;;;14.50;13.27;;;;;;;1.29;78.27;99218.78;5019706;28;20108;-75
2023/04/03 04:49:19;;;;;;;15.73;12.25;;;;;;;1.30;78.05;99212.50;5016605;28;20025;-74
2023/04/03 04:51:44;;;;;;;14.35;13.38;;;;;;;1.33;77.38;99208.72;4999935;28;20023;-74
2023/04/03 04:54:10;;;;;;;12.27;11.23;;;;;;;1.23;78.00;99208.00;4996675;28;20524;-75
2023/04/03 04:56:37;;;;;;;13.05;11.95;;;;;;;1.39;76.99;99214.19;4979069;28;20026;-76
2023/04/03 04:59:03;;;;;;;13.00;11.98;;;;;;;1.27;77.90;99218.13;5004786;28;20037;-75
2023/04/03 05:01:29;;;;;;;12.48;11.55;;;;;;;1.40;77.11;99221.16;5002157;28;20365;-75
2023/04/03 05:04:12;;;;;;;10.88;9.93;;;;;;;1.34;75.61;99216.50;5009508;28;20056;-75
2023/04/03 05:06:38;;;;;;;12.10;11.02;;;;;;;1.39;76.33;99219.50;5004079;28;20037;-75
2023/04/03 05:09:08;;;;;;;9.95;9.15;;;;;;;1.46;75.81;99224.16;5000516;28;20548;-75
2023/04/03 05:11:35;;;;;;;11.52;8.73;;;;;;;1.43;75.58;99230.63;5024767;28;20540;-75
2023/04/03 05:14:00;;;;;;;8.75;7.95;;;;;;;1.48;75.26;99233.63;5008016;28;20032;-75
2023/04/03 05:16:27;;;;;;;8.95;8.02;;;;;;;1.42;75.21;99234.28;5018988;28;20132;-76
2023/04/03 05:18:53;;;;;;;9.68;8.52;;;;;;;1.37;76.43;99237.41;5020595;28;20400;-75
2023/04/03 05:21:23;;;;;;;9.90;8.90;;;;;;;1.38;75.91;99228.44;5025913;28;20033;-77
2023/04/03 05:23:49;;;;;;;8.43;7.60;;;;;;;1.31;76.31;99238.03;5022740;28;20033;-75
2023/04/03 05:26:15;;;;;;;14.25;8.27;;;;;;;1.35;75.65;99234.06;5025096;28;20405;-76
2023/04/03 05:28:41;;;;;;;9.65;8.75;;;;;;;1.38;75.67;99243.53;4978931;28;20174;-75
2023/04/03 05:31:07;;;;;;;10.05;8.30;;;;;;;1.38;75.10;99240.88;4999991;28;20037;-76
2023/04/03 05:33:35;;;;;;;8.57;7.22;;;;;;;1.42;74.67;99243.03;5010508;28;20025;-75
2023/04/03 05:36:03;;;;;;;10.75;7.30;;;;;;;1.42;75.37;99256.31;5025356;28;20033;-76
2023/04/03 05:38:30;;;;;;;10.80;8.13;;;;;;;1.35;75.95;99239.38;5008942;28;20101;-75
2023/04/03 05:40:56;;;;;;;9.45;7.43;;;;;;;1.38;75.05;99249.66;5012614;28;20030;-74
2023/04/03 05:43:21;;;;;;;8.57;7.85;;;;;;;1.53;74.65;99249.91;5012180;28;20030;-76
2023/04/03 05:45:48;;;;;;;8.32;7.50;;;;;;;1.40;75.38;99253.00;5012264;28;20048;-75
2023/04/03 05:48:14;;;;;;;10.38;8.25;;;;;;;1.52;75.92;99261.50;5012347;28;20067;-75
2023/04/03 05:50:41;;;;;;;9.35;8.43;;;;;;;1.47;75.07;99249.72;5011187;28;20143;-75
2023/04/03 05:53:19;;;;;;;12.23;8.00;;;;;;;1.56;74.20;99251.41;5009013;28;20029;-75
2023/04/03 05:55:45;;;;;;;8.98;8.07;;;;;;;1.66;74.02;99254.72;4984195;28;20034;-75
2023/04/03 05:58:11;;;;;;;8.45;7.40;;;;;;;1.52;74.74;99261.50;5012997;28;20538;-75
2023/04/03 06:00:37;;;;;;;9.98;7.82;;;;;;;1.66;74.05;99257.38;5022822;28;20053;-76
2023/04/03 06:03:02;;;;;;;7.60;6.68;;;;;;;1.79;73.57;99263.91;5010526;28;20509;-75
2023/04/03 06:05:28;;;;;;;9.50;6.93;;;;;;;1.70;73.05;99266.69;5023084;28;20511;-75
2023/04/03 06:07:54;;;;;;;7.72;6.93;;;;;;;1.65;73.68;99266.34;4997292;28;20036;-75
2023/04/03 06:10:19;;;;;;;8.27;6.50;;;;;;;1.79;72.36;99271.03;5023036;28;20562;-76
2023/04/03 06:12:45;;;;;;;6.47;5.88;;;;;;;1.77;71.94;99273.03;4988305;28;20025;-75
2023/04/03 06:15:11;;;;;;;10.40;6.38;;;;;;;1.82;73.22;99268.06;5012785;28;20116;-75
2023/04/03 06:17:39;;;;;;;8.63;6.80;;;;;;;2.01;73.06;99271.25;5011461;28;20114;-75
2023/04/03 06:20:05;;;;;;;8.52;6.65;;;;;;;1.91;73.42;99272.41;5022885;28;20484;-76
2023/04/03 06:22:30;;;;;;;6.70;5.97;;;;;;;1.77;71.87;99275.69;5008119;28;20026;-75
2023/04/03 06:24:56;;;;;;;8.13;6.07;;;;;;;1.73;72.47;99282.28;5011415;28;20034;-77
2023/04/03 06:27:22;;;;;;;7.90;5.70;;;;;;;1.83;70.85;99285.63;5026419;28;20557;-74
2023/04/03 06:29:48;;;;;;;7.88;5.35;;;;;;;1.81;71.88;99287.63;5024218;28;20034;-75
2023/04/03 06:32:14;;;;;;;8.40;5.97;;;;;;;1.72;71.57;99288.59;5025060;28;20025;-76
2023/04/03 06:34:41;;;;;;;8.73;5.55;;;;;;;1.92;70.98;99295.28;5019123;28;20037;-76
2023/04/03 06:37:10;;;;;;;8.05;5.68;;;;;;;1.95;70.25;99297.63;4983755;28;20091;-76
2023/04/03 06:39:35;;;;;;;8.85;5.97;;;;;;;1.86;71.21;99295.94;5005981;28;20427;-76
2023/04/03 06:42:01;;;;;;;6.80;4.90;;;;;;;1.91;70.46;99291.00;5024412;28;20014;-76
2023/04/03 06:44:34;;;;;;;11.27;6.47;;;;;;;1.88;71.39;99304.59;5020522;28;20029;-76
2023/04/03 06:47:00;;;;;;;6.75;5.50;;;;;;;1.89;70.52;99306.25;5018989;28;20036;-76
2023/04/03 06:49:26;;;;;;;11.48;5.80;;;;;;;1.92;70.25;99297.94;5021394;28;20542;-76
2023/04/03 06:51:51;;;;;;;5.95;5.35;;;;;;;2.02;69.86;99306.59;5013649;28;20392;-76
2023/04/03 06:54:16;;;;;;;8.88;6.55;;;;;;;2.04;71.05;99308.09;5021520;28;20044;-77
2023/04/03 06:56:42;;;;;;;9.07;7.07;;;;;;;2.25;70.96;99306.81;5022095;28;20101;-76
2023/04/03 06:59:08;;;;;;;6.95;6.10;;;;;;;2.20;70.33;99309.13;5010799;28;20042;-76
2023/04/03 07:01:33;;;;;;;8.57;5.50;;;;;;;2.17;69.74;99320.09;5026873;28;20037;-77
2023/04/03 07:03:59;;;;;;;8.27;5.70;;;;;;;2.25;70.77;99323.59;5037348;28;20071;-77
2023/04/03 07:06:26;;;;;;;7.10;6.05;;;;;;;2.41;70.05;99326.25;5015060;28;20383;-77
2023/04/03 07:08:52;;;;;;;7.45;5.97;;;;;;;2.44;69.40;99323.28;5036875;28;20037;-77
2023/04/03 07:11:17;;;;;;;6.93;5.55;;;;;;;2.15;68.95;99322.91;5025165;28;20038;-77
2023/04/03 07:13:43;;;;;;;6.60;5.28;;;;;;;2.34;69.43;99327.91;5019113;28;20030;-77
2023/04/03 07:16:08;;;;;;;7.20;5.25;;;;;;;2.55;68.77;99327.41;5010529;28;20083;-76
2023/04/03 07:18:34;;;;;;;7.30;5.60;;;;;;;2.30;68.96;99331.91;5020467;28;20554;-76
2023/04/03 07:20:59;;;;;;;7.68;5.22;;;;;;;2.37;69.65;99343.53;5013754;28;20025;-76
2023/04/03 07:23:25;;;;;;;8.90;5.60;;;;;;;2.57;69.22;99333.41;5008347;28;20029;-76
2023/04/03 07:25:51;;;;;;;7.50;5.15;;;;;;;2.34;67.11;99341.19;5017557;28;20037;-76
2023/04/03 07:28:18;;;;;;;5.53;4.57;;;;;;;2.39;67.42;99344.19;4998544;28;20109;-75
2023/04/03 07:30:45;;;;;;;7.63;5.22;;;;;;;2.28;66.95;99349.84;4993976;28;20095;-76
2023/04/03 07:33:11;;;;;;;8.95;4.95;;;;;;;2.44;66.94;99347.19;4988447;28;20506;-76
2023/04/03 07:35:37;;;;;;;9.77;5.78;;;;;;;2.63;67.36;99352.22;5017244;28;20060;-76
2023/04/03 07:38:02;;;;;;;7.80;5.13;;;;;;;2.87;66.34;99355.84;5036500;28;20491;-76
2023/04/03 07:40:28;;;;;;;6.28;4.60;;;;;;;2.52;65.30;99363.16;5024995;28;20069;-76
2023/04/03 07:42:54;;;;;;;7.53;4.35;;;;;;;2.80;66.26;99345.88;5022443;28;20026;-76
2023/04/03 07:45:20;;;;;;;9.10;5.10;;;;;;;2.99;66.35;99349.22;5019939;28;20029;-77
2023/04/03 07:47:45;;;;;;;6.05;4.95;;;;;;;3.11;65.36;99347.84;5021041;28;20610;-76
2023/04/03 07:50:10;;;;;;;6.90;4.75;;;;;;;3.24;65.42;99356.16;5005590;28;20038;-77
2023/04/03 07:52:36;;;;;;;7.95;4.53;;;;;;;2.99;65.07;99349.22;5011803;28;20032;-76
2023/04/03 07:55:01;;;;;;;8.25;4.57;;;;;;;3.31;63.61;99347.28;5012890;28;20037;-76
2023/04/03 07:57:27;;;;;;;8.38;4.40;;;;;;;3.40;65.54;99353.44;5004265;28;20029;-76
2023/04/03 07:59:52;;;;;;;7.35;4.60;;;;;;;3.43;63.02;99342.47;5026750;28;20042;-76
2023/04/03 08:02:17;;;;;;;6.47;4.43;;;;;;;3.64;64.11;99350.69;5020617;28;20049;-76
2023/04/03 08:04:43;;;;;;;5.03;4.13;;;;;;;3.80;64.81;99345.31;4998067;28;20038;-76
2023/04/03 08:07:08;;;;;;;7.88;4.97;;;;;;;3.45;64.95;99340.47;5002619;28;20030;-76
2023/04/03 08:09:33;;;;;;;8.30;4.53;;;;;;;3.30;65.44;99363.44;5016726;28;20056;-76
2023/04/03 08:11:59;;;;;;;6.60;4.10;;;;;;;3.00;63.96;99357.00;5022438;28;20018;-76
2023/04/03 08:14:25;;;;;;;5.57;4.28;;;;;;;2.83;63.33;99366.00;5012927;28;20116;-76
2023/04/03 08:16:50;;;;;;;9.00;5.18;;;;;;;3.18;63.63;99372.78;5024054;28;20029;-76
2023/04/03 08:19:17;;;;;;;6.00;3.95;;;;;;;2.86;62.72;99372.81;5002703;28;20033;-76
2023/04/03 08:21:43;;;;;;;4.65;4.10;;;;;;;3.20;61.02;99373.44;5022965;28;20041;-76
2023/04/03 08:24:09;;;;;;;5.95;3.92;;;;;;;2.90;62.90;99371.47;5001699;28;20088;-76
2023/04/03 08:26:35;;;;;;;5.75;3.47;;;;;;;3.01;62.43;99373.81;5006604;28;20051;-76
2023/04/03 08:29:00;;;;;;;6.70;3.78;;;;;;;3.21;61.22;99370.63;5020101;28;20033;-76
2023/04/03 08:31:26;;;;;;;7.35;4.10;;;;;;;3.08;61.31;99372.16;5041319;28;20399;-77
2023/04/03 08:33:52;;;;;;;5.65;3.88;;;;;;;3.31;62.30;99381.09;5010484;28;20118;-76
2023/04/03 08:36:26;;;;;;;5.00;3.45;;;;;;;2.91;60.21;99375.81;5005822;28;20406;-76
2023/04/03 08:38:52;;;;;;;4.82;3.30;;;;;;;2.76;57.94;99387.09;5003670;28;20116;-76
2023/04/03 08:41:32;;;;;;;6.82;3.60;;;;;;;2.89;58.20;99375.16;5006866;28;20022;-76
2023/04/03 08:44:16;;;;;;;5.50;3.30;;;;;;;3.35;57.81;99382.41;5018770;28;20090;-75
2023/04/03 08:47:06;;;;;;;7.28;3.30;;;;;;;3.62;58.26;99374.00;5048642;28;20083;-76
2023/04/03 08:49:51;;;;;;;5.85;3.78;;;;;;;3.77;57.80;99377.63;5014652;28;20373;-76
2023/04/03 08:52:19;;;;;;;5.00;3.22;;;;;;;3.39;58.15;99383.72;5007239;28;20108;-76
2023/04/03 08:54:51;;;;;;;4.70;4.05;;;;;;;3.45;59.09;99393.72;5019322;28;20025;-76
2023/04/03 08:57:26;;;;;;;5.38;3.50;;;;;;;3.41;59.12;99382.56;4996725;28;20038;-76
2023/04/03 08:59:51;;;;;;;5.00;3.38;;;;;;;3.58;58.70;99394.00;5015595;28;20045;-76
2023/04/03 09:02:27;;;;;;;4.97;3.55;;;;;;;3.49;56.68;99389.69;5007496;28;20018;-76
2023/04/03 09:04:53;;;;;;;4.95;3.75;;;;;;;3.81;55.88;99383.44;4996821;28;20496;-76
2023/04/03 09:07:36;;;;;;;4.90;3.50;;;;;;;3.77;57.77;99376.78;5007443;28;20546;-76
2023/04/03 09:10:02;;;;;;;6.45;3.42;;;;;;;4.32;57.70;99390.03;5019696;28;20038;-76
2023/04/03 09:12:34;;;;;;;4.93;3.20;;;;;;;4.00;55.22;99378.53;5020100;28;20018;-76
2023/04/03 09:15:11;;;;;;;7.38;3.53;;;;;;;3.94;56.64;99397.88;4991434;28;20029;-76
2023/04/03 09:17:45;;;;;;;6.85;3.50;;;;;;;4.65;56.06;99394.97;5003026;28;20045;-76
2023/04/03 09:20:10;;;;;;;5.00;3.60;;;;;;;4.46;53.95;99403.44;5023173;28;20124;-76
2023/04/03 09:22:39;;;;;;;5.07;3.05;;;;;;;4.36;53.98;99404.69;5030185;28;20056;-75
2023/04/03 09:25:13;;;;;;;5.75;3.30;;;;;;;4.44;55.20;99393.94;5023550;28;20042;-77
2023/04/03 09:27:39;;;;;;;4.22;3.00;;;;;;;4.78;51.10;99389.88;5010361;28;20045;-76
2023/04/03 09:30:06;;;;;;;3.95;2.88;;;;;;;4.97;50.63;99383.22;5024105;28;20041;-76
2023/04/03 09:32:36;;;;;;;3.63;2.72;;;;;;;5.02;51.76;99402.19;5036854;28;20057;-76
2023/04/03 09:35:15;;;;;;;3.63;2.80;;;;;;;5.47;51.77;99386.09;5021375;28;20088;-77
2023/04/03 09:37:44;;;;;;;5.50;3.70;;;;;;;5.34;50.97;99391.25;5027343;28;20182;-77
2023/04/03 09:40:29;;;;;;;4.82;2.95;;;;;;;4.93;52.23;99384.59;5031161;22;20065;-72
2023/04/03 09:43:20;;;;;;;5.55;2.60;;;;;;;4.62;51.79;99384.66;5039817;28;20065;-72
2023/04/03 09:45:47;;;;;;;3.90;2.53;;;;;;;4.93;51.49;99381.94;5041520;28;20044;-72
2023/04/03 09:48:15;;;;;;;3.15;2.78;;;;;;;5.15;52.28;99383.75;5018815;28;20027;-72
2023/04/03 09:50:50;;;;;;;3.20;2.47;;;;;;;5.35;50.79;99379.53;5035080;28;20037;-72
2023/04/03 09:53:41;;;;;;;3.65;2.30;;;;;;;5.42;49.76;99385.81;5052500;28;20067;-72
2023/04/03 09:56:15;;;;;;;3.42;2.30;;;;;;;4.89;48.26;99386.81;5036931;28;20036;-72
2023/04/03 09:58:45;;;;;;;3.85;1.95;;;;;;;5.01;49.61;99371.19;5052599;28;20040;-71
2023/04/03 10:01:32;;;;;;;4.57;2.58;;;;;;;4.95;50.28;99374.56;5048128;28;20043;-72
2023/04/03 10:04:11;;;;;;;;;;;;;;;4.87;53.21;99377.31;5002262;28;20036;-72
2023/04/03 10:06:49;;;;;;;4.00;2.55;;;;;;;4.88;52.21;99376.28;5018229;28;19952;-71
2023/04/03 10:09:29;;;;;;;5.25;2.45;;;;;;;5.08;52.73;99366.78;5018210;28;20076;-72
2023/04/03 10:12:06;;;;;;;3.88;2.33;;;;;;;4.37;51.27;99377.00;5034647;28;20059;-71
2023/04/03 10:14:40;;;;;;;3.92;2.33;;;;;;;4.97;54.65;99361.88;5052107;28;20540;-72
2023/04/03 10:17:19;;;;;;;3.67;2.67;;;;;;;4.19;51.23;99364.78;5050701;28;20478;-72
2023/04/03 10:19:53;;;;;;;5.00;2.25;;;;;;;4.06;51.41;99367.16;5022845;28;20041;-72
2023/04/03 10:22:59;;;;;;;3.40;2.45;;;;;;;4.06;53.88;99361.84;5034348;28;20051;-71
2023/04/03 10:25:58;;;;;;;2.60;1.95;;;;;;;3.96;48.72;99365.72;5011728;28;20045;-72
2023/04/03 10:28:31;;;;;;;3.33;2.10;;;;;;;4.69;52.10;99358.13;5052338;28;20112;-71
2023/04/03 10:31:17;;;;;;;4.20;2.45;;;;;;;4.67;49.74;99365.44;5035208;28;20028;-72
2023/04/03 10:34:17;;;;;;;3.10;2.30;;;;;;;4.82;50.53;99374.34;5050606;28;20489;-72
2023/04/03 10:36:46;;;;;;;3.55;2.22;;;;;;;5.27;49.58;99352.09;5018887;28;20094;-72
2023/04/03 10:39:36;;;;;;;3.50;2.30;;;;;;;4.90;50.27;99359.09;5033916;28;20064;-72
2023/04/03 10:42:15;;;;;;;2.08;1.80;;;;;;;4.36;48.58;99351.34;5050542;28;20044;-72
2023/04/03 10:45:02;;;;;;;3.10;2.03;;;;;;;4.48;47.89;99361.41;5017328;28;20033;-72
2023/04/03 10:47:49;;;;;;;3.03;1.90;;;;;;;5.17;48.86;99347.00;5051500;28;20032;-72
2023/04/03 10:50:33;;;;;;;2.70;1.92;;;;;;;4.85;48.97;99350.78;5043988;28;20052;-72
2023/04/03 10:53:08;;;;;;;4.30;2.13;;;;;;;4.65;48.83;99356.78;5042520;28;20085;-72
2023/04/03 10:55:56;;;;;;;3.58;2.30;;;;;;;4.86;49.63;99346.28;5038386;28;20052;-72
2023/04/03 10:58:28;;;;;;;3.33;2.28;;;;;;;4.84;50.33;99346.47;5051665;28;20041;-72
2023/04/03 11:00:56;;;;;;;2.53;2.03;;;;;;;4.49;48.06;99356.91;5050263;28;20033;-72
2023/04/03 11:03:31;;;;;;;2.80;1.92;;;;;;;4.83;49.58;99349.34;5033641;28;20025;-72
2023/04/03 11:05:58;;;;;;;4.15;1.95;;;;;;;4.66;46.38;99335.28;5017748;28;20050;-72
2023/04/03 11:08:44;;;;;;;2.80;1.90;;;;;;;4.65;47.22;99346.13;5000878;28;20024;-72
2023/04/03 11:11:14;;;;;;;3.40;1.90;;;;;;;5.17;48.74;99336.34;5033700;28;20449;-73
2023/04/03 11:13:44;;;;;;;3.38;2.10;;;;;;;5.38;47.68;99325.78;5033536;28;20033;-72
2023/04/03 11:16:14;;;;;;;3.10;2.00;;;;;;;5.59;46.07;99333.88;5033722;28;20144;-72
2023/04/03 11:18:49;;;;;;;5.72;2.78;;;;;;;5.35;46.07;99317.28;5017210;28;20037;-72
2023/04/03 11:21:35;;;;;;;3.47;2.25;;;;;;;5.31;47.85;99324.84;5033514;28;20047;-72
2023/04/03 11:24:03;;;;;;;3.15;2.35;;;;;;;5.57;48.22;99321.72;5033484;28;20641;-72
2023/04/03 11:26:32;;;;;;;3.03;2.35;;;;;;;4.72;47.30;99315.88;5050148;28;20036;-72
2023/04/03 11:29:15;;;;;;;2.45;2.20;;;;;;;5.04;45.67;99320.09;5049860;28;20409;-71
2023/04/03 11:31:53;;;;;;;3.10;2.50;;;;;;;5.37;47.16;99310.75;5033312;28;20025;-72
2023/04/03 11:34:34;;;;;;;2.50;2.10;;;;;;;5.52;44.23;99303.56;5049983;28;20040;-73
2023/04/03 11:37:01;;;;;;;3.05;2.00;;;;;;;5.68;46.88;99317.72;5033645;28;20041;-73
2023/04/03 11:39:34;;;;;;;5.40;2.40;;;;;;;5.54;46.66;99301.53;5033682;28;20087;-74
2023/04/03 11:42:27;;;;;;;3.80;2.30;;;;;;;5.43;46.35;99319.88;5033292;28;20060;-74
2023/04/03 11:45:16;;;;;;;2.97;2.33;;;;;;;5.56;47.57;99307.53;5051119;28;20090;-73